KEBS/EBS METAR and TAF weather

Enter ICAO airport designator
Station Type Date Time Source
KEBS METAR 2018/12/12 16:15 UTC NOAA

KEBS 121615Z AUTO 31007KT 4SM BR OVC005 M04/M04 A2979 RMK AO2


Station Type Date Time Source
KEBS Decoded METAR 2018/12/12 16:15 UTC NOAA

Webster City, IA, United States (KEBS) 42-26N 093-52W
Dec 12, 2018 - 11:15 AM EST / 2018.12.12 1615 UTC
Wind: from the NW (310 degrees) at 8 MPH (7 KT):0
Visibility: 4 mile(s):0
Sky conditions: overcast
Weather: mist
Temperature: 24 F (-4 C)
Windchill: 15 F (-9 C):1
Dew Point: 24 F (-4 C)
Relative Humidity: 100%
Pressure (altimeter): 29.79 in. Hg (1008 hPa)
ob: KEBS 121615Z AUTO 31007KT 4SM BR OVC005 M04/M04 A2979 RMK AO2
cycle: 16

Station Type Date Time Source
KEBS TAF UTC NOAA

Error!


Example: see airport list